Terminal Aerodrome Forecast
Issued by NWS Charleston, WV

Current Version | Previous Version | Graphics & Text | Print | Product List | Glossary On
Versions: 1 2 3 4 5 6 7 8 9 10 11 12 13 14 15 16 17 18 19 20 21 22 23 24 25 26 27 28 29
913
FTUS41 KRLX 131316 AAA
TAFBKW
TAF AMD
KBKW 131316Z 1313/1412 33006KT 1/4SM -RA FG OVC002
     FM131500 34005KT 2SM BR OVC006
     FM131600 34005KT 5SM BR OVC006
     FM131900 35005KT P6SM BKN013
     FM140000 03004KT 2SM -RA OVC017
     FM140600 13007KT 1SM -RA OVC005=

USA.gov is the U.S. government's official web portal to all federal, state and local government web resources and services.